Colombian Star — A8SL3 — position and weather

sailwx.info

Track history (hours):
 
Tides and Currents Weather Stations Pressure Air Temp Water Temp Dewpoint Dewpoint Depression Visibility Wind Speed Wind Dir Waves Ship Positions

Colombian Star

Last reported at 2017-Nov-15 09:58 UTC. Time now 2017-Nov-21 04:26 UTC.
Position N 27°45' W 016°23'.

Length 185 m; draft 8.8 m.

Type: Cargo ship. MMSI: 636014240.

Date/timePositionNaut miles runAvg speedWind from/ knotsBaromVisibWave heightAir tempDewpointWater temp
2017-Nov-15 09:58N 27°45' W 016°23'3616.6
2017-Nov-15 07:47N 28°17' W 016°04'517.1
2017-Nov-15 07:30N 28°21' W 016°01'917.2
2017-Nov-15 07:00N 28°27' W 015°54'917.3
2017-Nov-15 06:30N 28°34' W 015°48'918.5
2017-Nov-15 06:00N 28°42' W 015°43'918.8
2017-Nov-15 05:31N 28°51' W 015°39'917.4
2017-Nov-15 05:01N 28°59' W 015°36'4017.0
2017-Nov-15 02:38N 29°38' W 015°22'317.3
2017-Nov-15 02:29N 29°40' W 015°22'817.0
2017-Nov-15 02:00N 29°48' W 015°19'1717.0
2017-Nov-15 01:01N 30°04' W 015°13'217.0
2017-Nov-15 00:55N 30°06' W 015°13'1217.1
2017-Nov-15 00:13N 30°17' W 015°09'  
2017-Nov-11 22:09N 49°07' W 005°40'711.2
2017-Nov-11 21:32N 49°10' W 005°30'211.0
2017-Nov-11 21:20N 49°11' W 005°27'411.2
2017-Nov-11 20:57N 49°12' W 005°22'511.2
2017-Nov-11 20:29N 49°15' W 005°14'611.3
2017-Nov-11 19:58N 49°17' W 005°06'611.5
2017-Nov-11 19:27N 49°20' W 004°58'611.5
2017-Nov-11 18:57N 49°23' W 004°50'4312.6
2017-Nov-11 15:33N 49°41' W 003°51'113.5
2017-Nov-11 15:30N 49°42' W 003°50'913.2
2017-Nov-11 14:51N 49°46' W 003°38'413.1
2017-Nov-11 14:30N 49°48' W 003°32'612.9
2017-Nov-11 14:00N 49°51' W 003°23'612.6
2017-Nov-11 13:30N 49°53' W 003°15'612.3
2017-Nov-11 13:00N 49°56' W 003°06'612.1
2017-Nov-11 12:30N 49°58' W 002°57'612.0
2017-Nov-11 11:59N 50°01' W 002°48'612.1
2017-Nov-11 11:29N 50°02' W 002°39'712.3
2017-Nov-11 10:54N 50°04' W 002°28'1312.7
2017-Nov-11 09:52N 50°07' W 002°08'513.2
2017-Nov-11 09:28N 50°08' W 002°00'613.7
2017-Nov-11 09:00N 50°10' W 001°51'714.4
2017-Nov-11 08:30N 50°12' W 001°40'816.8
2017-Nov-11 08:00N 50°14' W 001°27'917.2
2017-Nov-11 07:31N 50°17' W 001°14'1317.3
2017-Nov-11 06:46N 50°20' W 000°55'2016.7
2017-Nov-11 05:34N 50°26' W 000°25'116.6
2017-Nov-11 05:30N 50°26' W 000°23'816.2
2017-Nov-11 05:00N 50°28' W 000°11'815.9
2017-Nov-11 04:30N 50°30' E 000°01'815.8
2017-Nov-11 04:00N 50°32' E 000°13'815.5
2017-Nov-11 03:30N 50°34' E 000°25'815.4
2017-Nov-11 03:00N 50°36' E 000°36'815.8
2017-Nov-11 02:30N 50°41' E 000°47'816.3
2017-Nov-11 02:00N 50°45' E 000°57'916.9
2017-Nov-11 01:28N 50°51' E 001°09'817.7
2017-Nov-11 01:00N 50°56' E 001°19'918.6
2017-Nov-11 00:30N 51°02' E 001°29'1019.2
2017-Nov-11 00:01N 51°09' E 001°40'918.3
2017-Nov-10 23:31N 51°16' E 001°49'917.4
2017-Nov-10 23:01N 51°23' E 001°58'713.6
2017-Nov-10 22:31N 51°23' E 002°09'714.9
2017-Nov-10 22:01N 51°21' E 002°21'815.1
2017-Nov-10 21:30N 51°23' E 002°32'714.3
2017-Nov-10 21:00N 51°23' E 002°44'510.9
2017-Nov-10 20:30N 51°25' E 002°52'612.1
2017-Nov-10 20:00N 51°25' E 003°02'612.1
2017-Nov-10 19:30N 51°24' E 003°11'611.9
2017-Nov-10 19:00N 51°24' E 003°21'611.8
2017-Nov-10 18:30N 51°25' E 003°30'4 7.6
2017-Nov-10 18:00N 51°26' E 003°36'4 7.5
2017-Nov-10 17:30N 51°25' E 003°42'4 8.3
2017-Nov-10 17:00N 51°22' E 003°46'4 7.9
2017-Nov-10 16:30N 51°21' E 003°52'4 8.4
2017-Nov-10 16:00N 51°24' E 003°57'3 6.6
2017-Nov-10 15:30N 51°26' E 004°01'4 7.9
2017-Nov-10 15:00N 51°22' E 004°05'4 8.5
2017-Nov-10 14:30N 51°24' E 004°11'4 8.4
2017-Nov-10 14:01N 51°21' E 004°16'4 8.7
2017-Nov-10 13:30N 51°17' E 004°19'2 4.3
2017-Nov-10 13:01N 51°16' E 004°17'0 0.0
2017-Nov-10 12:30N 51°16' E 004°17'1 1.0
2017-Nov-10 12:00N 51°16' E 004°16'1 1.5
2017-Nov-10 11:30N 51°16' E 004°15'0 0.0
2017-Nov-10 11:00N 51°16' E 004°15'0 0.0
2017-Nov-10 10:30N 51°16' E 004°15'0 0.0
2017-Nov-10 10:00N 51°16' E 004°15'0 0.0
2017-Nov-10 09:30N 51°16' E 004°15'0 0.0
2017-Nov-10 09:00N 51°16' E 004°15'0 0.0
2017-Nov-10 08:30N 51°16' E 004°15'0 0.0
2017-Nov-10 08:00N 51°16' E 004°15'0 0.0
2017-Nov-10 07:30N 51°16' E 004°15'0 0.0
2017-Nov-10 07:00N 51°16' E 004°15'0 0.0
2017-Nov-10 06:30N 51°16' E 004°15'0 0.0
2017-Nov-10 06:00N 51°16' E 004°15'0 0.0
2017-Nov-10 05:30N 51°16' E 004°15'0 0.0
2017-Nov-10 04:57N 51°16' E 004°15'0 0.0
2017-Nov-10 04:30N 51°16' E 004°15'0 0.0
2017-Nov-10 03:57N 51°16' E 004°15'0 0.0
2017-Nov-10 03:30N 51°16' E 004°15'0 0.0
2017-Nov-10 03:00N 51°16' E 004°15'0 0.0
2017-Nov-10 02:30N 51°16' E 004°15'0 0.0
2017-Nov-10 02:00N 51°16' E 004°15'0 0.0
2017-Nov-10 01:30N 51°16' E 004°15'0 0.0
2017-Nov-10 01:00N 51°16' E 004°15'0 0.0
2017-Nov-10 00:30N 51°16' E 004°15'0 0.0
2017-Nov-10 00:00N 51°16' E 004°15'0 0.0
2017-Nov-09 23:30N 51°16' E 004°15'0 0.0
2017-Nov-09 23:00N 51°16' E 004°15'0 0.0
2017-Nov-09 22:30N 51°16' E 004°15'0 0.0
2017-Nov-09 22:00N 51°16' E 004°15'0 0.0
2017-Nov-09 21:30N 51°16' E 004°15'0 0.0
2017-Nov-09 21:00N 51°16' E 004°15'0 0.0
2017-Nov-09 20:30N 51°16' E 004°15'0 0.0
2017-Nov-09 20:00N 51°16' E 004°15'0 0.0
2017-Nov-09 19:30N 51°16' E 004°15'0 0.0
2017-Nov-09 19:00N 51°16' E 004°15'0 0.0
2017-Nov-09 18:30N 51°16' E 004°15'0 0.0
2017-Nov-09 18:00N 51°16' E 004°15'0 0.0
2017-Nov-09 17:30N 51°16' E 004°15'0 0.0
2017-Nov-09 17:00N 51°16' E 004°15'0 0.0
2017-Nov-09 16:30N 51°16' E 004°15'0 0.0
2017-Nov-09 16:00N 51°16' E 004°15'0 0.0
2017-Nov-09 15:30N 51°16' E 004°15'0 0.0
2017-Nov-09 15:00N 51°16' E 004°15'0 0.0
2017-Nov-09 14:30N 51°16' E 004°15'0 0.0
2017-Nov-09 14:00N 51°16' E 004°15'0 0.0
2017-Nov-09 13:30N 51°16' E 004°15'0 0.0
2017-Nov-09 13:00N 51°16' E 004°15'0 0.0
2017-Nov-09 12:30N 51°16' E 004°15'0 0.0
2017-Nov-09 12:00N 51°16' E 004°15'0 0.0
2017-Nov-09 11:30N 51°16' E 004°15'0 0.0
2017-Nov-09 11:00N 51°16' E 004°15'0 0.0
2017-Nov-09 10:30N 51°16' E 004°15'0 0.0
2017-Nov-09 10:00N 51°16' E 004°15'0 0.0
2017-Nov-09 09:30N 51°16' E 004°15'0 0.0
2017-Nov-09 09:00N 51°16' E 004°15'0 0.0
2017-Nov-09 08:30N 51°16' E 004°15'0 0.0
2017-Nov-09 08:00N 51°16' E 004°15'0 0.0
2017-Nov-09 07:30N 51°16' E 004°15'0 0.0
2017-Nov-09 07:00N 51°16' E 004°15'0 0.0
2017-Nov-09 06:30N 51°16' E 004°15'0 0.0
2017-Nov-09 06:00N 51°16' E 004°15'0 0.0
2017-Nov-09 05:30N 51°16' E 004°15'0 0.0
2017-Nov-09 05:00N 51°16' E 004°15'0 0.0
2017-Nov-09 04:30N 51°16' E 004°15'0 0.0
2017-Nov-09 04:00N 51°16' E 004°15'0 0.0
2017-Nov-09 03:30N 51°16' E 004°15'0 0.0
2017-Nov-09 03:00N 51°16' E 004°15'0 0.0
2017-Nov-09 02:30N 51°16' E 004°15'0 0.0
2017-Nov-09 02:00N 51°16' E 004°15'0 0.0
2017-Nov-09 01:24N 51°16' E 004°15'0 0.0
2017-Nov-09 01:00N 51°16' E 004°15'0 0.0
2017-Nov-09 00:30N 51°16' E 004°15'0 0.0
2017-Nov-09 00:00N 51°16' E 004°15'0 0.0
2017-Nov-08 23:30N 51°16' E 004°15'0 0.0
2017-Nov-08 23:00N 51°16' E 004°15'0 0.0
2017-Nov-08 22:27N 51°16' E 004°15'0 0.0
2017-Nov-08 22:00N 51°16' E 004°15'0 0.0
2017-Nov-08 21:30N 51°16' E 004°15'0 0.0
2017-Nov-08 21:00N 51°16' E 004°15'0 0.0
2017-Nov-08 20:30N 51°16' E 004°15'0 0.0
2017-Nov-08 20:00N 51°16' E 004°15'0 0.0
2017-Nov-08 19:30N 51°16' E 004°15'0 0.0
2017-Nov-08 19:00N 51°16' E 004°15'0 0.0
2017-Nov-08 18:30N 51°16' E 004°15'0 0.0
2017-Nov-08 18:00N 51°16' E 004°15'0 0.0
2017-Nov-08 17:27N 51°16' E 004°15'0 0.0
2017-Nov-08 17:00N 51°16' E 004°15'0 0.0
2017-Nov-08 16:30N 51°16' E 004°15'0 0.0
2017-Nov-08 15:57N 51°16' E 004°15'0 0.0
2017-Nov-08 15:30N 51°16' E 004°15'0 0.0
2017-Nov-08 15:00N 51°16' E 004°15'0 0.0
2017-Nov-08 14:30N 51°16' E 004°15'0 0.0
2017-Nov-08 14:00N 51°16' E 004°15'0 0.0
2017-Nov-08 13:30N 51°16' E 004°15'0 0.0
2017-Nov-08 13:00N 51°16' E 004°15'0 0.0
2017-Nov-08 12:30N 51°16' E 004°15'0 0.0
2017-Nov-08 12:00N 51°16' E 004°15'0 0.0
2017-Nov-08 11:30N 51°16' E 004°15'0 0.0
2017-Nov-08 11:00N 51°16' E 004°15'0 0.0
2017-Nov-08 10:30N 51°16' E 004°15'0 0.0
2017-Nov-08 10:00N 51°16' E 004°15'0 0.0
2017-Nov-08 09:30N 51°16' E 004°15'0 0.0
2017-Nov-08 09:00N 51°16' E 004°15'0 0.0
2017-Nov-08 08:30N 51°16' E 004°15'0 0.0
2017-Nov-08 08:00N 51°16' E 004°15'0 0.0
2017-Nov-08 07:30N 51°16' E 004°15'0 0.0
2017-Nov-08 07:00N 51°16' E 004°15'0 0.0
2017-Nov-08 06:30N 51°16' E 004°15'0 0.0
2017-Nov-08 06:00N 51°16' E 004°15'0 0.0
2017-Nov-08 05:30N 51°16' E 004°15'0 0.0
2017-Nov-08 05:00N 51°16' E 004°15'0 0.0
2017-Nov-08 04:30N 51°16' E 004°15'0 0.0
2017-Nov-08 03:57N 51°16' E 004°15'0 0.0
2017-Nov-08 03:30N 51°16' E 004°15'0 0.0
2017-Nov-08 03:00N 51°16' E 004°15'0 0.0
2017-Nov-08 02:30N 51°16' E 004°15'0 0.0
2017-Nov-08 02:00N 51°16' E 004°15'0 0.0
2017-Nov-08 01:30N 51°16' E 004°15'0 0.0
2017-Nov-08 01:00N 51°16' E 004°15'0 0.0
2017-Nov-08 00:30N 51°16' E 004°15'0 0.0
2017-Nov-08 00:00N 51°16' E 004°15'0 0.0
2017-Nov-07 23:30N 51°16' E 004°15'0 0.0
2017-Nov-07 23:00N 51°16' E 004°15'0 0.0
2017-Nov-07 22:30N 51°16' E 004°15'0 0.0
2017-Nov-07 22:00N 51°16' E 004°15'0 0.0
2017-Nov-07 21:30N 51°16' E 004°15'0 0.0
2017-Nov-07 21:00N 51°16' E 004°15'0 0.0
2017-Nov-07 20:30N 51°16' E 004°15'0 0.0
2017-Nov-07 20:00N 51°16' E 004°15'0 0.0
2017-Nov-07 19:30N 51°16' E 004°15'0 0.0
2017-Nov-07 19:00N 51°16' E 004°15'0 0.0
2017-Nov-07 18:30N 51°16' E 004°15'0 0.0
2017-Nov-07 18:00N 51°16' E 004°15'0 0.0
2017-Nov-07 17:27N 51°16' E 004°15'0 0.0
2017-Nov-07 17:00N 51°16' E 004°15'0 0.0
2017-Nov-07 16:30N 51°16' E 004°15'0 0.0
2017-Nov-07 16:00N 51°16' E 004°15'0 0.0
2017-Nov-07 15:27N 51°16' E 004°15'0 0.0
2017-Nov-07 15:00N 51°16' E 004°15'0 0.0
2017-Nov-07 14:30N 51°16' E 004°15'0 0.0
2017-Nov-07 14:00N 51°16' E 004°15'0 0.0
2017-Nov-07 13:30N 51°16' E 004°15'0 0.0
2017-Nov-07 13:00N 51°16' E 004°15'0 0.0
2017-Nov-07 12:30N 51°16' E 004°15'0 0.0
2017-Nov-07 12:00N 51°16' E 004°15'0 0.0
2017-Nov-07 11:30N 51°16' E 004°15'0 0.0
2017-Nov-07 11:00N 51°16' E 004°15'0 0.0
2017-Nov-07 10:30N 51°16' E 004°15'0 0.0
2017-Nov-07 10:00N 51°16' E 004°15'0 0.0
2017-Nov-07 09:30N 51°16' E 004°15'0 0.0
2017-Nov-07 08:57N 51°16' E 004°15'0 0.0
2017-Nov-07 08:30N 51°16' E 004°15'0 0.0
2017-Nov-07 08:00N 51°16' E 004°15'0 0.0
2017-Nov-07 07:27N 51°16' E 004°15'0 0.0
2017-Nov-07 07:00N 51°16' E 004°15'0 0.0
2017-Nov-07 06:30N 51°16' E 004°15'0 0.0
2017-Nov-07 06:00N 51°16' E 004°15'0 0.0
2017-Nov-07 05:30N 51°16' E 004°15'0 0.0
2017-Nov-07 05:00N 51°16' E 004°15'0 0.0
2017-Nov-07 04:30N 51°16' E 004°15'0 0.0
2017-Nov-07 04:00N 51°16' E 004°15'0 0.0
2017-Nov-07 03:30N 51°16' E 004°15'0 0.0
2017-Nov-07 03:00N 51°16' E 004°15'0 0.0
2017-Nov-07 02:30N 51°16' E 004°15'0 0.0
2017-Nov-07 02:00N 51°16' E 004°15'0 0.0
2017-Nov-07 01:30N 51°16' E 004°15'0 0.0
2017-Nov-07 01:00N 51°16' E 004°15'0 0.0
2017-Nov-07 00:30N 51°16' E 004°15'0 0.0
2017-Nov-07 00:00N 51°16' E 004°15'0 0.0
2017-Nov-06 23:30N 51°16' E 004°15'0 0.0
2017-Nov-06 23:00N 51°16' E 004°15'0 0.0
2017-Nov-06 22:30N 51°16' E 004°15'0 0.0
2017-Nov-06 22:00N 51°16' E 004°15'0 0.0
2017-Nov-06 21:30N 51°16' E 004°15'0 0.0
2017-Nov-06 21:00N 51°16' E 004°15'0 0.0
2017-Nov-06 20:30N 51°16' E 004°15'0 0.0
2017-Nov-06 02:30N 51°16' E 004°15'1 2.4
2017-Nov-06 02:01N 51°16' E 004°17'0 0.2
2017-Nov-06 01:30N 51°16' E 004°17'0 0.8
2017-Nov-06 01:01N 51°16' E 004°17'2 4.0
2017-Nov-06 00:30N 51°18' E 004°18'4 8.9
2017-Nov-06 00:00N 51°22' E 004°14'3 5.5
2017-Nov-05 23:30N 51°23' E 004°10'4 8.3
2017-Nov-05 23:00N 51°22' E 004°04'5 9.3
2017-Nov-05 22:31N 51°25' E 003°58'612.5
2017-Nov-05 22:00N 51°21' E 003°51'611.4
2017-Nov-05 21:30N 51°23' E 003°43'510.5
2017-Nov-05 21:01N 51°26' E 003°36'4 8.8
2017-Nov-05 20:30N 51°25' E 003°29'612.8
2017-Nov-05 20:00N 51°24' E 003°19'713.0
2017-Nov-05 19:30N 51°24' E 003°08'612.0
2017-Nov-05 19:00N 51°25' E 002°59'612.1
2017-Nov-05 18:30N 51°25' E 002°49'510.7
2017-Nov-05 18:00N 51°22' E 002°42'3 4.6
2017-Nov-05 17:24N 51°25' E 002°40'1 1.3
2017-Nov-05 16:54N 51°25' E 002°41'0 0.1
2017-Nov-05 16:27N 51°25' E 002°41'0 0.0
2017-Nov-05 15:57N 51°25' E 002°41'0 0.1
2017-Nov-05 15:30N 51°25' E 002°41'0 0.0
2017-Nov-05 14:48N 51°25' E 002°41'0 0.0
2017-Nov-05 14:24N 51°25' E 002°41'0 0.4
2017-Nov-05 13:56N 51°25' E 002°41'3 6.2
2017-Nov-05 13:24N 51°23' E 002°37'513.8
2017-Nov-05 13:00N 51°22' E 002°28'715.0
2017-Nov-05 12:30N 51°18' E 002°18'816.0
2017-Nov-05 12:00N 51°13' E 002°07'918.2
2017-Nov-05 11:30N 51°09' E 001°54'918.1
2017-Nov-05 11:00N 51°04' E 001°43'918.1
2017-Nov-05 10:30N 50°57' E 001°34'816.5
2017-Nov-05 10:00N 50°49' E 001°27'  
Track history (hours):
 
Tides and Currents Weather Stations Pressure Air Temp Water Temp Dewpoint Dewpoint Depression Visibility Wind Speed Wind Dir Waves Ship Positions

Colombian Star

Last reported at 2017-Nov-15 09:58 UTC. Time now 2017-Nov-21 04:26 UTC.
Position N 27°45' W 016°23'.

Length 185 m; draft 8.8 m.

Type: Cargo ship. MMSI: 636014240.

Date/timePositionNaut miles runAvg speedWind from/ knotsBaromVisibWave heightAir tempDewpointWater temp
2017-Nov-15 09:58N 27°45' W 016°23'3616.6
2017-Nov-15 07:47N 28°17' W 016°04'517.1
2017-Nov-15 07:30N 28°21' W 016°01'917.2
2017-Nov-15 07:00N 28°27' W 015°54'917.3
2017-Nov-15 06:30N 28°34' W 015°48'918.5
2017-Nov-15 06:00N 28°42' W 015°43'918.8
2017-Nov-15 05:31N 28°51' W 015°39'917.4
2017-Nov-15 05:01N 28°59' W 015°36'4017.0
2017-Nov-15 02:38N 29°38' W 015°22'317.3
2017-Nov-15 02:29N 29°40' W 015°22'817.0
2017-Nov-15 02:00N 29°48' W 015°19'1717.0
2017-Nov-15 01:01N 30°04' W 015°13'217.0
2017-Nov-15 00:55N 30°06' W 015°13'1217.1
2017-Nov-15 00:13N 30°17' W 015°09'  
2017-Nov-11 22:09N 49°07' W 005°40'711.2
2017-Nov-11 21:32N 49°10' W 005°30'211.0
2017-Nov-11 21:20N 49°11' W 005°27'411.2
2017-Nov-11 20:57N 49°12' W 005°22'511.2
2017-Nov-11 20:29N 49°15' W 005°14'611.3
2017-Nov-11 19:58N 49°17' W 005°06'611.5
2017-Nov-11 19:27N 49°20' W 004°58'611.5
2017-Nov-11 18:57N 49°23' W 004°50'4312.6
2017-Nov-11 15:33N 49°41' W 003°51'113.5
2017-Nov-11 15:30N 49°42' W 003°50'913.2
2017-Nov-11 14:51N 49°46' W 003°38'413.1
2017-Nov-11 14:30N 49°48' W 003°32'612.9
2017-Nov-11 14:00N 49°51' W 003°23'612.6
2017-Nov-11 13:30N 49°53' W 003°15'612.3
2017-Nov-11 13:00N 49°56' W 003°06'612.1
2017-Nov-11 12:30N 49°58' W 002°57'612.0
2017-Nov-11 11:59N 50°01' W 002°48'612.1
2017-Nov-11 11:29N 50°02' W 002°39'712.3
2017-Nov-11 10:54N 50°04' W 002°28'1312.7
2017-Nov-11 09:52N 50°07' W 002°08'513.2
2017-Nov-11 09:28N 50°08' W 002°00'613.7
2017-Nov-11 09:00N 50°10' W 001°51'714.4
2017-Nov-11 08:30N 50°12' W 001°40'816.8
2017-Nov-11 08:00N 50°14' W 001°27'917.2
2017-Nov-11 07:31N 50°17' W 001°14'1317.3
2017-Nov-11 06:46N 50°20' W 000°55'2016.7
2017-Nov-11 05:34N 50°26' W 000°25'116.6
2017-Nov-11 05:30N 50°26' W 000°23'816.2
2017-Nov-11 05:00N 50°28' W 000°11'815.9
2017-Nov-11 04:30N 50°30' E 000°01'815.8
2017-Nov-11 04:00N 50°32' E 000°13'815.5
2017-Nov-11 03:30N 50°34' E 000°25'815.4
2017-Nov-11 03:00N 50°36' E 000°36'815.8
2017-Nov-11 02:30N 50°41' E 000°47'816.3
2017-Nov-11 02:00N 50°45' E 000°57'916.9
2017-Nov-11 01:28N 50°51' E 001°09'817.7
2017-Nov-11 01:00N 50°56' E 001°19'918.6
2017-Nov-11 00:30N 51°02' E 001°29'1019.2
2017-Nov-11 00:01N 51°09' E 001°40'918.3
2017-Nov-10 23:31N 51°16' E 001°49'917.4
2017-Nov-10 23:01N 51°23' E 001°58'713.6
2017-Nov-10 22:31N 51°23' E 002°09'714.9
2017-Nov-10 22:01N 51°21' E 002°21'815.1
2017-Nov-10 21:30N 51°23' E 002°32'714.3
2017-Nov-10 21:00N 51°23' E 002°44'510.9
2017-Nov-10 20:30N 51°25' E 002°52'612.1
2017-Nov-10 20:00N 51°25' E 003°02'612.1
2017-Nov-10 19:30N 51°24' E 003°11'611.9
2017-Nov-10 19:00N 51°24' E 003°21'611.8
2017-Nov-10 18:30N 51°25' E 003°30'4 7.6
2017-Nov-10 18:00N 51°26' E 003°36'4 7.5
2017-Nov-10 17:30N 51°25' E 003°42'4 8.3
2017-Nov-10 17:00N 51°22' E 003°46'4 7.9
2017-Nov-10 16:30N 51°21' E 003°52'4 8.4
2017-Nov-10 16:00N 51°24' E 003°57'3 6.6
2017-Nov-10 15:30N 51°26' E 004°01'4 7.9
2017-Nov-10 15:00N 51°22' E 004°05'4 8.5
2017-Nov-10 14:30N 51°24' E 004°11'4 8.4
2017-Nov-10 14:01N 51°21' E 004°16'4 8.7
2017-Nov-10 13:30N 51°17' E 004°19'2 4.3
2017-Nov-10 13:01N 51°16' E 004°17'0 0.0
2017-Nov-10 12:30N 51°16' E 004°17'1 1.0
2017-Nov-10 12:00N 51°16' E 004°16'1 1.5
2017-Nov-10 11:30N 51°16' E 004°15'0 0.0
2017-Nov-10 11:00N 51°16' E 004°15'0 0.0
2017-Nov-10 10:30N 51°16' E 004°15'0 0.0
2017-Nov-10 10:00N 51°16' E 004°15'0 0.0
2017-Nov-10 09:30N 51°16' E 004°15'0 0.0
2017-Nov-10 09:00N 51°16' E 004°15'0 0.0
2017-Nov-10 08:30N 51°16' E 004°15'0 0.0
2017-Nov-10 08:00N 51°16' E 004°15'0 0.0
2017-Nov-10 07:30N 51°16' E 004°15'0 0.0
2017-Nov-10 07:00N 51°16' E 004°15'0 0.0
2017-Nov-10 06:30N 51°16' E 004°15'0 0.0
2017-Nov-10 06:00N 51°16' E 004°15'0 0.0
2017-Nov-10 05:30N 51°16' E 004°15'0 0.0
2017-Nov-10 04:57N 51°16' E 004°15'0 0.0
2017-Nov-10 04:30N 51°16' E 004°15'0 0.0
2017-Nov-10 03:57N 51°16' E 004°15'0 0.0
2017-Nov-10 03:30N 51°16' E 004°15'0 0.0
2017-Nov-10 03:00N 51°16' E 004°15'0 0.0
2017-Nov-10 02:30N 51°16' E 004°15'0 0.0
2017-Nov-10 02:00N 51°16' E 004°15'0 0.0
2017-Nov-10 01:30N 51°16' E 004°15'0 0.0
2017-Nov-10 01:00N 51°16' E 004°15'0 0.0
2017-Nov-10 00:30N 51°16' E 004°15'0 0.0
2017-Nov-10 00:00N 51°16' E 004°15'0 0.0
2017-Nov-09 23:30N 51°16' E 004°15'0 0.0
2017-Nov-09 23:00N 51°16' E 004°15'0 0.0
2017-Nov-09 22:30N 51°16' E 004°15'0 0.0
2017-Nov-09 22:00N 51°16' E 004°15'0 0.0
2017-Nov-09 21:30N 51°16' E 004°15'0 0.0
2017-Nov-09 21:00N 51°16' E 004°15'0 0.0
2017-Nov-09 20:30N 51°16' E 004°15'0 0.0
2017-Nov-09 20:00N 51°16' E 004°15'0 0.0
2017-Nov-09 19:30N 51°16' E 004°15'0 0.0
2017-Nov-09 19:00N 51°16' E 004°15'0 0.0
2017-Nov-09 18:30N 51°16' E 004°15'0 0.0
2017-Nov-09 18:00N 51°16' E 004°15'0 0.0
2017-Nov-09 17:30N 51°16' E 004°15'0 0.0
2017-Nov-09 17:00N 51°16' E 004°15'0 0.0
2017-Nov-09 16:30N 51°16' E 004°15'0 0.0
2017-Nov-09 16:00N 51°16' E 004°15'0 0.0
2017-Nov-09 15:30N 51°16' E 004°15'0 0.0
2017-Nov-09 15:00N 51°16' E 004°15'0 0.0
2017-Nov-09 14:30N 51°16' E 004°15'0 0.0
2017-Nov-09 14:00N 51°16' E 004°15'0 0.0
2017-Nov-09 13:30N 51°16' E 004°15'0 0.0
2017-Nov-09 13:00N 51°16' E 004°15'0 0.0
2017-Nov-09 12:30N 51°16' E 004°15'0 0.0
2017-Nov-09 12:00N 51°16' E 004°15'0 0.0
2017-Nov-09 11:30N 51°16' E 004°15'0 0.0
2017-Nov-09 11:00N 51°16' E 004°15'0 0.0
2017-Nov-09 10:30N 51°16' E 004°15'0 0.0
2017-Nov-09 10:00N 51°16' E 004°15'0 0.0
2017-Nov-09 09:30N 51°16' E 004°15'0 0.0
2017-Nov-09 09:00N 51°16' E 004°15'0 0.0
2017-Nov-09 08:30N 51°16' E 004°15'0 0.0
2017-Nov-09 08:00N 51°16' E 004°15'0 0.0
2017-Nov-09 07:30N 51°16' E 004°15'0 0.0
2017-Nov-09 07:00N 51°16' E 004°15'0 0.0
2017-Nov-09 06:30N 51°16' E 004°15'0 0.0
2017-Nov-09 06:00N 51°16' E 004°15'0 0.0
2017-Nov-09 05:30N 51°16' E 004°15'0 0.0
2017-Nov-09 05:00N 51°16' E 004°15'0 0.0
2017-Nov-09 04:30N 51°16' E 004°15'0 0.0
2017-Nov-09 04:00N 51°16' E 004°15'0 0.0
2017-Nov-09 03:30N 51°16' E 004°15'0 0.0
2017-Nov-09 03:00N 51°16' E 004°15'0 0.0
2017-Nov-09 02:30N 51°16' E 004°15'0 0.0
2017-Nov-09 02:00N 51°16' E 004°15'0 0.0
2017-Nov-09 01:24N 51°16' E 004°15'0 0.0
2017-Nov-09 01:00N 51°16' E 004°15'0 0.0
2017-Nov-09 00:30N 51°16' E 004°15'0 0.0
2017-Nov-09 00:00N 51°16' E 004°15'0 0.0
2017-Nov-08 23:30N 51°16' E 004°15'0 0.0
2017-Nov-08 23:00N 51°16' E 004°15'0 0.0
2017-Nov-08 22:27N 51°16' E 004°15'0 0.0
2017-Nov-08 22:00N 51°16' E 004°15'0 0.0
2017-Nov-08 21:30N 51°16' E 004°15'0 0.0
2017-Nov-08 21:00N 51°16' E 004°15'0 0.0
2017-Nov-08 20:30N 51°16' E 004°15'0 0.0
2017-Nov-08 20:00N 51°16' E 004°15'0 0.0
2017-Nov-08 19:30N 51°16' E 004°15'0 0.0
2017-Nov-08 19:00N 51°16' E 004°15'0 0.0
2017-Nov-08 18:30N 51°16' E 004°15'0 0.0
2017-Nov-08 18:00N 51°16' E 004°15'0 0.0
2017-Nov-08 17:27N 51°16' E 004°15'0 0.0
2017-Nov-08 17:00N 51°16' E 004°15'0 0.0
2017-Nov-08 16:30N 51°16' E 004°15'0 0.0
2017-Nov-08 15:57N 51°16' E 004°15'0 0.0
2017-Nov-08 15:30N 51°16' E 004°15'0 0.0
2017-Nov-08 15:00N 51°16' E 004°15'0 0.0
2017-Nov-08 14:30N 51°16' E 004°15'0 0.0
2017-Nov-08 14:00N 51°16' E 004°15'0 0.0
2017-Nov-08 13:30N 51°16' E 004°15'0 0.0
2017-Nov-08 13:00N 51°16' E 004°15'0 0.0
2017-Nov-08 12:30N 51°16' E 004°15'0 0.0
2017-Nov-08 12:00N 51°16' E 004°15'0 0.0
2017-Nov-08 11:30N 51°16' E 004°15'0 0.0
2017-Nov-08 11:00N 51°16' E 004°15'0 0.0
2017-Nov-08 10:30N 51°16' E 004°15'0 0.0
2017-Nov-08 10:00N 51°16' E 004°15'0 0.0
2017-Nov-08 09:30N 51°16' E 004°15'0 0.0
2017-Nov-08 09:00N 51°16' E 004°15'0 0.0
2017-Nov-08 08:30N 51°16' E 004°15'0 0.0
2017-Nov-08 08:00N 51°16' E 004°15'0 0.0
2017-Nov-08 07:30N 51°16' E 004°15'0 0.0
2017-Nov-08 07:00N 51°16' E 004°15'0 0.0
2017-Nov-08 06:30N 51°16' E 004°15'0 0.0
2017-Nov-08 06:00N 51°16' E 004°15'0 0.0
2017-Nov-08 05:30N 51°16' E 004°15'0 0.0
2017-Nov-08 05:00N 51°16' E 004°15'0 0.0
2017-Nov-08 04:30N 51°16' E 004°15'0 0.0
2017-Nov-08 03:57N 51°16' E 004°15'0 0.0
2017-Nov-08 03:30N 51°16' E 004°15'0 0.0
2017-Nov-08 03:00N 51°16' E 004°15'0 0.0
2017-Nov-08 02:30N 51°16' E 004°15'0 0.0
2017-Nov-08 02:00N 51°16' E 004°15'0 0.0
2017-Nov-08 01:30N 51°16' E 004°15'0 0.0
2017-Nov-08 01:00N 51°16' E 004°15'0 0.0
2017-Nov-08 00:30N 51°16' E 004°15'0 0.0
2017-Nov-08 00:00N 51°16' E 004°15'0 0.0
2017-Nov-07 23:30N 51°16' E 004°15'0 0.0
2017-Nov-07 23:00N 51°16' E 004°15'0 0.0
2017-Nov-07 22:30N 51°16' E 004°15'0 0.0
2017-Nov-07 22:00N 51°16' E 004°15'0 0.0
2017-Nov-07 21:30N 51°16' E 004°15'0 0.0
2017-Nov-07 21:00N 51°16' E 004°15'0 0.0
2017-Nov-07 20:30N 51°16' E 004°15'0 0.0
2017-Nov-07 20:00N 51°16' E 004°15'0 0.0
2017-Nov-07 19:30N 51°16' E 004°15'0 0.0
2017-Nov-07 19:00N 51°16' E 004°15'0 0.0
2017-Nov-07 18:30N 51°16' E 004°15'0 0.0
2017-Nov-07 18:00N 51°16' E 004°15'0 0.0
2017-Nov-07 17:27N 51°16' E 004°15'0 0.0
2017-Nov-07 17:00N 51°16' E 004°15'0 0.0
2017-Nov-07 16:30N 51°16' E 004°15'0 0.0
2017-Nov-07 16:00N 51°16' E 004°15'0 0.0
2017-Nov-07 15:27N 51°16' E 004°15'0 0.0
2017-Nov-07 15:00N 51°16' E 004°15'0 0.0
2017-Nov-07 14:30N 51°16' E 004°15'0 0.0
2017-Nov-07 14:00N 51°16' E 004°15'0 0.0
2017-Nov-07 13:30N 51°16' E 004°15'0 0.0
2017-Nov-07 13:00N 51°16' E 004°15'0 0.0
2017-Nov-07 12:30N 51°16' E 004°15'0 0.0
2017-Nov-07 12:00N 51°16' E 004°15'0 0.0
2017-Nov-07 11:30N 51°16' E 004°15'0 0.0
2017-Nov-07 11:00N 51°16' E 004°15'0 0.0
2017-Nov-07 10:30N 51°16' E 004°15'0 0.0
2017-Nov-07 10:00N 51°16' E 004°15'0 0.0
2017-Nov-07 09:30N 51°16' E 004°15'0 0.0
2017-Nov-07 08:57N 51°16' E 004°15'0 0.0
2017-Nov-07 08:30N 51°16' E 004°15'0 0.0
2017-Nov-07 08:00N 51°16' E 004°15'0 0.0
2017-Nov-07 07:27N 51°16' E 004°15'0 0.0
2017-Nov-07 07:00N 51°16' E 004°15'0 0.0
2017-Nov-07 06:30N 51°16' E 004°15'0 0.0
2017-Nov-07 06:00N 51°16' E 004°15'0 0.0
2017-Nov-07 05:30N 51°16' E 004°15'0 0.0
2017-Nov-07 05:00N 51°16' E 004°15'0 0.0
2017-Nov-07 04:30N 51°16' E 004°15'0 0.0
2017-Nov-07 04:00N 51°16' E 004°15'0 0.0
2017-Nov-07 03:30N 51°16' E 004°15'0 0.0
2017-Nov-07 03:00N 51°16' E 004°15'0 0.0
2017-Nov-07 02:30N 51°16' E 004°15'0 0.0
2017-Nov-07 02:00N 51°16' E 004°15'0 0.0
2017-Nov-07 01:30N 51°16' E 004°15'0 0.0
2017-Nov-07 01:00N 51°16' E 004°15'0 0.0
2017-Nov-07 00:30N 51°16' E 004°15'0 0.0
2017-Nov-07 00:00N 51°16' E 004°15'0 0.0
2017-Nov-06 23:30N 51°16' E 004°15'0 0.0
2017-Nov-06 23:00N 51°16' E 004°15'0 0.0
2017-Nov-06 22:30N 51°16' E 004°15'0 0.0
2017-Nov-06 22:00N 51°16' E 004°15'0 0.0
2017-Nov-06 21:30N 51°16' E 004°15'0 0.0
2017-Nov-06 21:00N 51°16' E 004°15'0 0.0
2017-Nov-06 20:30N 51°16' E 004°15'0 0.0
2017-Nov-06 02:30N 51°16' E 004°15'1 2.4
2017-Nov-06 02:01N 51°16' E 004°17'0 0.2
2017-Nov-06 01:30N 51°16' E 004°17'0 0.8
2017-Nov-06 01:01N 51°16' E 004°17'2 4.0
2017-Nov-06 00:30N 51°18' E 004°18'4 8.9
2017-Nov-06 00:00N 51°22' E 004°14'3 5.5
2017-Nov-05 23:30N 51°23' E 004°10'4 8.3
2017-Nov-05 23:00N 51°22' E 004°04'5 9.3
2017-Nov-05 22:31N 51°25' E 003°58'612.5
2017-Nov-05 22:00N 51°21' E 003°51'611.4
2017-Nov-05 21:30N 51°23' E 003°43'510.5
2017-Nov-05 21:01N 51°26' E 003°36'4 8.8
2017-Nov-05 20:30N 51°25' E 003°29'612.8
2017-Nov-05 20:00N 51°24' E 003°19'713.0
2017-Nov-05 19:30N 51°24' E 003°08'612.0
2017-Nov-05 19:00N 51°25' E 002°59'612.1
2017-Nov-05 18:30N 51°25' E 002°49'510.7
2017-Nov-05 18:00N 51°22' E 002°42'3 4.6
2017-Nov-05 17:24N 51°25' E 002°40'1 1.3
2017-Nov-05 16:54N 51°25' E 002°41'0 0.1
2017-Nov-05 16:27N 51°25' E 002°41'0 0.0
2017-Nov-05 15:57N 51°25' E 002°41'0 0.1
2017-Nov-05 15:30N 51°25' E 002°41'0 0.0
2017-Nov-05 14:48N 51°25' E 002°41'0 0.0
2017-Nov-05 14:24N 51°25' E 002°41'0 0.4
2017-Nov-05 13:56N 51°25' E 002°41'3 6.2
2017-Nov-05 13:24N 51°23' E 002°37'513.8
2017-Nov-05 13:00N 51°22' E 002°28'715.0
2017-Nov-05 12:30N 51°18' E 002°18'816.0
2017-Nov-05 12:00N 51°13' E 002°07'918.2
2017-Nov-05 11:30N 51°09' E 001°54'918.1
2017-Nov-05 11:00N 51°04' E 001°43'918.1
2017-Nov-05 10:30N 50°57' E 001°34'816.5
2017-Nov-05 10:00N 50°49' E 001°27'  

Dump ship's entire track history